createdAt,value
2019-05-07T00:01:06.497Z,5.42
2019-05-07T00:03:37.149Z,7.95
2019-05-07T00:06:07.457Z,6.92
2019-05-07T00:08:37.788Z,9.15
2019-05-07T00:11:08.118Z,11.08
2019-05-07T00:13:44.129Z,11.85
2019-05-07T00:16:13.350Z,11.68
2019-05-07T00:18:44.012Z,12.00
2019-05-07T00:21:15.922Z,11.78
2019-05-07T00:23:46.603Z,15.83
2019-05-07T00:26:18.573Z,16.20
2019-05-07T00:28:49.341Z,11.85
2019-05-07T00:31:23.267Z,13.60
2019-05-07T00:33:54.445Z,13.00
2019-05-07T00:36:29.185Z,11.65
2019-05-07T00:39:16.167Z,13.90
2019-05-07T00:42:07.269Z,12.70
2019-05-07T00:44:39.149Z,12.18
2019-05-07T00:47:13.840Z,11.85
2019-05-07T00:49:45.549Z,15.25
2019-05-07T00:52:15.884Z,9.50
2019-05-07T00:54:46.211Z,13.25
2019-05-07T00:57:16.536Z,13.90
2019-05-07T00:59:47.844Z,12.43
2019-05-07T01:02:32.394Z,12.98
2019-05-07T01:05:06.843Z,11.95
2019-05-07T01:07:37.186Z,13.35
2019-05-07T01:10:10.004Z,12.00
2019-05-07T01:12:42.349Z,10.78
2019-05-07T01:15:12.855Z,13.35
2019-05-07T01:17:44.488Z,9.80
2019-05-07T01:20:14.769Z,13.55
2019-05-07T01:22:45.078Z,13.80
2019-05-07T01:25:15.629Z,10.53
2019-05-07T01:27:48.641Z,10.93
2019-05-07T01:30:24.322Z,8.98
2019-05-07T01:33:02.636Z,8.63
2019-05-07T01:35:34.412Z,11.35
2019-05-07T01:38:06.153Z,8.95
2019-05-07T01:40:36.475Z,13.78
2019-05-07T01:43:11.927Z,9.20
2019-05-07T01:45:49.068Z,5.45
2019-05-07T01:48:17.025Z,6.33
2019-05-07T01:50:47.295Z,5.10
2019-05-07T01:53:17.568Z,5.12
2019-05-07T01:55:47.809Z,5.05
2019-05-07T01:58:18.128Z,4.10
2019-05-07T02:00:53.200Z,4.12
2019-05-07T02:03:41.918Z,3.92
2019-05-07T02:06:13.314Z,3.15
2019-05-07T02:09:03.443Z,3.00
2019-05-07T02:11:36.854Z,3.08
2019-05-07T02:14:07.107Z,5.65
2019-05-07T02:16:37.406Z,3.37
2019-05-07T02:19:12.707Z,3.67
2019-05-07T02:21:43.004Z,4.53
2019-05-07T02:24:13.331Z,3.37
2019-05-07T02:26:45.097Z,4.95
2019-05-07T02:29:15.270Z,3.42
2019-05-07T02:31:45.577Z,2.92
2019-05-07T02:34:15.880Z,3.87
2019-05-07T02:36:47.722Z,5.85
2019-05-07T02:39:19.631Z,3.20
2019-05-07T02:41:49.932Z,3.50
2019-05-07T02:44:23.020Z,4.40
2019-05-07T02:46:53.778Z,3.80
2019-05-07T02:49:44.090Z,2.75
2019-05-07T02:52:23.040Z,2.27
2019-05-07T02:55:04.388Z,4.05
2019-05-07T02:57:34.778Z,3.52
2019-05-07T03:00:06.857Z,3.05
2019-05-07T03:02:37.176Z,2.85
2019-05-07T03:05:07.708Z,5.28
2019-05-07T03:07:38.143Z,3.77
2019-05-07T03:10:08.482Z,4.75
2019-05-07T03:12:38.792Z,5.62
2019-05-07T03:15:09.024Z,7.25
2019-05-07T03:17:39.416Z,4.05
2019-05-07T03:20:15.651Z,4.30
2019-05-07T03:22:45.911Z,3.83
2019-05-07T03:25:23.119Z,3.85
2019-05-07T03:27:53.574Z,3.92
2019-05-07T03:30:26.518Z,4.95
2019-05-07T03:32:59.276Z,3.40
2019-05-07T03:35:36.348Z,5.90
2019-05-07T03:38:04.667Z,5.28
2019-05-07T03:40:36.094Z,6.35
2019-05-07T03:43:07.550Z,2.77
2019-05-07T03:45:45.340Z,2.83
2019-05-07T03:48:24.110Z,3.98
2019-05-07T03:50:54.981Z,3.17
2019-05-07T03:53:25.291Z,2.40
2019-05-07T03:55:55.631Z,4.12
2019-05-07T03:58:25.874Z,4.45
2019-05-07T04:00:56.190Z,3.12
2019-05-07T04:03:26.555Z,3.33
2019-05-07T04:05:56.907Z,3.05
2019-05-07T04:08:27.198Z,4.30
2019-05-07T04:10:57.428Z,4.87
2019-05-07T04:13:27.738Z,2.92
2019-05-07T04:15:57.963Z,3.00
2019-05-07T04:18:28.197Z,3.45
2019-05-07T04:20:59.631Z,4.37
2019-05-07T04:26:33.894Z,5.28
2019-05-07T04:29:06.023Z,8.55
2019-05-07T04:31:38.113Z,11.45
2019-05-07T04:37:03.246Z,16.95
2019-05-07T04:39:33.490Z,9.35
2019-05-07T04:42:03.705Z,11.97
2019-05-07T04:44:33.858Z,8.18
2019-05-07T04:47:04.681Z,10.30
2019-05-07T04:49:53.461Z,8.60
2019-05-07T04:52:27.424Z,18.60
2019-05-07T04:54:57.617Z,11.20
2019-05-07T04:57:27.761Z,6.90
2019-05-07T04:59:58.784Z,10.48
2019-05-07T05:02:37.510Z,7.37
2019-05-07T05:05:07.692Z,9.93
2019-05-07T05:07:37.746Z,9.50
2019-05-07T05:10:08.313Z,6.12
2019-05-07T05:12:38.742Z,7.67
2019-05-07T05:15:09.133Z,9.88
2019-05-07T05:17:50.075Z,10.38
2019-05-07T05:20:13.233Z,7.78
2019-05-07T05:22:45.087Z,11.70
2019-05-07T05:25:33.407Z,9.78
2019-05-07T05:28:05.742Z,7.28
2019-05-07T05:30:42.417Z,10.43
2019-05-07T05:33:13.742Z,8.18
2019-05-07T05:35:43.872Z,8.13
2019-05-07T05:38:13.963Z,11.43
2019-05-07T05:40:44.173Z,9.18
2019-05-07T05:43:24.597Z,8.53
2019-05-07T05:46:04.479Z,12.90
2019-05-07T05:48:34.679Z,10.08
2019-05-07T05:51:12.590Z,12.10
2019-05-07T05:53:45.358Z,10.30
2019-05-07T05:56:18.899Z,8.00
2019-05-07T05:58:52.532Z,11.60
2019-05-07T06:01:42.731Z,10.90
2019-05-07T06:04:26.757Z,9.15
2019-05-07T06:07:11.112Z,6.85
2019-05-07T06:09:52.743Z,8.45
2019-05-07T06:12:33.381Z,8.23
2019-05-07T06:15:22.498Z,5.15
2019-05-07T06:18:02.573Z,6.12
2019-05-07T06:20:42.821Z,5.60
2019-05-07T06:23:32.686Z,4.33
2019-05-07T06:26:05.163Z,5.85
2019-05-07T06:28:35.751Z,8.35
2019-05-07T06:31:05.848Z,4.00
2019-05-07T06:33:38.986Z,5.33
2019-05-07T06:36:09.106Z,5.25
2019-05-07T06:38:50.111Z,6.05
2019-05-07T06:41:37.861Z,5.58
2019-05-07T06:44:09.683Z,4.53
2019-05-07T06:46:41.824Z,4.58
2019-05-07T06:49:12.708Z,5.20
2019-05-07T06:51:42.981Z,4.58
2019-05-07T06:54:13.279Z,5.90
2019-05-07T06:56:43.470Z,5.85
2019-05-07T06:59:18.260Z,3.90
2019-05-07T07:01:49.991Z,8.08
2019-05-07T07:04:27.938Z,5.58
2019-05-07T07:07:01.922Z,6.75
2019-05-07T07:09:52.574Z,4.58
2019-05-07T07:12:27.441Z,5.10
2019-05-07T07:14:58.197Z,6.30
2019-05-07T07:17:32.422Z,5.42
2019-05-07T07:22:34.394Z,5.25
2019-05-07T07:25:06.745Z,4.75
2019-05-07T07:27:36.899Z,5.22
2019-05-07T07:30:32.465Z,4.83
2019-05-07T07:33:03.682Z,2.65
2019-05-07T07:35:33.735Z,3.55
2019-05-07T07:38:05.610Z,3.47
2019-05-07T07:40:43.086Z,4.50
2019-05-07T07:43:13.185Z,3.42
2019-05-07T07:45:43.249Z,3.90
2019-05-07T07:48:13.355Z,3.17
2019-05-07T07:50:46.611Z,2.37
2019-05-07T07:55:47.494Z,3.27
2019-05-07T07:58:32.182Z,3.25
2019-05-07T08:01:07.834Z,3.15
2019-05-07T08:03:38.038Z,2.65
2019-05-07T08:06:12.059Z,3.60
2019-05-07T08:08:43.079Z,3.45
2019-05-07T08:11:15.010Z,2.90
2019-05-07T08:13:45.300Z,2.55
2019-05-07T08:16:15.489Z,3.22
2019-05-07T08:18:47.414Z,5.47
2019-05-07T08:21:17.539Z,3.83
2019-05-07T08:23:48.646Z,4.67
2019-05-07T08:26:18.739Z,4.10
2019-05-07T08:28:48.815Z,3.77
2019-05-07T08:31:38.757Z,4.12
2019-05-07T08:34:23.003Z,3.35
2019-05-07T08:36:53.086Z,3.65
2019-05-07T08:39:25.191Z,4.42
2019-05-07T08:41:55.025Z,3.80
2019-05-07T08:44:38.817Z,2.90
2019-05-07T08:47:13.986Z,4.37
2019-05-07T08:49:44.038Z,6.00
2019-05-07T08:52:14.166Z,23.47
2019-05-07T08:54:44.706Z,7.17
2019-05-07T08:57:14.898Z,4.65
2019-05-07T08:59:57.470Z,5.95
2019-05-07T09:02:16.886Z,4.35
2019-05-07T09:04:47.145Z,4.30
2019-05-07T09:07:21.998Z,3.98
2019-05-07T09:09:52.458Z,6.22
2019-05-07T09:12:23.083Z,4.55
2019-05-07T09:14:53.165Z,6.78
2019-05-07T09:17:23.425Z,5.17
2019-05-07T09:19:55.167Z,4.40
2019-05-07T09:22:25.359Z,6.60
2019-05-07T09:24:55.559Z,3.92
2019-05-07T09:27:42.179Z,5.35
2019-05-07T09:30:15.318Z,4.75
2019-05-07T09:32:52.228Z,7.90
2019-05-07T09:35:32.381Z,7.58
2019-05-07T09:38:03.156Z,5.42
2019-05-07T09:40:34.674Z,5.85
2019-05-07T09:43:04.754Z,4.80
2019-05-07T09:45:34.878Z,5.42
2019-05-07T09:48:05.122Z,4.22
2019-05-07T09:50:35.188Z,4.80
2019-05-07T09:53:05.311Z,5.20
2019-05-07T09:55:35.498Z,5.62
2019-05-07T09:58:05.808Z,6.90
2019-05-07T10:00:37.821Z,4.70
2019-05-07T10:03:08.257Z,7.03
2019-05-07T10:05:42.796Z,4.75
2019-05-07T10:08:13.242Z,4.67
2019-05-07T10:10:46.918Z,6.45
2019-05-07T10:13:42.031Z,4.85
2019-05-07T10:16:16.848Z,4.12
2019-05-07T10:18:47.475Z,4.53
2019-05-07T10:21:22.090Z,3.75
2019-05-07T10:23:54.906Z,6.95
2019-05-07T10:26:25.518Z,4.97
2019-05-07T10:28:56.349Z,10.98
2019-05-07T10:31:26.882Z,5.70
2019-05-07T10:33:57.013Z,5.28
2019-05-07T10:36:29.249Z,5.12
2019-05-07T10:38:59.422Z,4.65
2019-05-07T10:41:31.722Z,4.05
2019-05-07T10:44:02.565Z,4.80
2019-05-07T10:46:34.538Z,6.15
2019-05-07T10:49:16.211Z,4.78
2019-05-07T10:51:46.488Z,5.22
2019-05-07T10:54:21.875Z,5.42
2019-05-07T10:56:53.568Z,4.25
2019-05-07T10:59:23.537Z,4.92
2019-05-07T11:02:12.503Z,6.25
2019-05-07T11:04:43.567Z,4.70
2019-05-07T11:07:13.902Z,6.28
2019-05-07T11:09:44.025Z,5.12
2019-05-07T11:12:14.566Z,4.58
2019-05-07T11:14:44.689Z,5.83
2019-05-07T11:17:16.463Z,5.70
2019-05-07T11:19:46.438Z,4.80
2019-05-07T11:22:16.731Z,5.35
2019-05-07T11:24:46.751Z,6.47
2019-05-07T11:27:22.494Z,6.78
2019-05-07T11:30:12.525Z,5.70
2019-05-07T11:32:43.030Z,5.62
2019-05-07T11:35:17.805Z,35.13
2019-05-07T11:37:51.851Z,6.83
2019-05-07T11:40:22.877Z,5.65
2019-05-07T11:42:58.331Z,5.95
2019-05-07T11:45:36.262Z,6.83
2019-05-07T11:48:08.033Z,4.87
2019-05-07T11:50:45.758Z,6.58
2019-05-07T11:53:17.922Z,8.13
2019-05-07T11:55:52.359Z,9.33
2019-05-07T11:58:22.685Z,7.75
2019-05-07T12:00:57.251Z,7.28
2019-05-07T12:03:27.557Z,4.85
2019-05-07T12:05:58.029Z,5.45
2019-05-07T12:08:40.924Z,4.33
2019-05-07T12:11:02.117Z,8.05
2019-05-07T12:13:34.188Z,7.17
2019-05-07T12:16:06.067Z,6.45
2019-05-07T12:18:36.186Z,6.60
2019-05-07T12:21:18.286Z,7.67
2019-05-07T12:23:38.697Z,8.78
2019-05-07T12:26:12.369Z,4.95
2019-05-07T12:28:42.202Z,7.42
2019-05-07T12:31:13.890Z,8.30
2019-05-07T12:33:45.650Z,6.15
2019-05-07T12:36:16.434Z,6.05
2019-05-07T12:38:46.590Z,6.75
2019-05-07T12:41:34.431Z,6.17
2019-05-07T12:44:06.806Z,5.72
2019-05-07T12:46:38.584Z,5.40
2019-05-07T12:49:08.871Z,5.87
2019-05-07T12:51:42.732Z,5.83
2019-05-07T12:54:26.866Z,5.10
2019-05-07T12:56:57.061Z,5.15
2019-05-07T12:59:27.251Z,5.55
2019-05-07T13:02:26.673Z,5.30
2019-05-07T13:04:45.967Z,6.42
2019-05-07T13:07:24.020Z,6.25
2019-05-07T13:09:55.774Z,5.53
2019-05-07T13:12:25.945Z,5.83
2019-05-07T13:14:57.142Z,5.22
2019-05-07T13:17:27.413Z,5.33
2019-05-07T13:19:57.482Z,7.72
2019-05-07T13:22:27.630Z,6.03
2019-05-07T13:24:57.682Z,4.90
2019-05-07T13:27:29.371Z,5.87
2019-05-07T13:30:02.388Z,6.50
2019-05-07T13:32:34.913Z,5.25
2019-05-07T13:35:07.478Z,7.72
2019-05-07T13:37:41.711Z,5.67
2019-05-07T13:40:31.513Z,8.20
2019-05-07T13:43:16.425Z,6.05
2019-05-07T13:45:49.126Z,6.70
2019-05-07T13:48:22.506Z,5.80
2019-05-07T13:50:53.014Z,6.90
2019-05-07T13:53:23.335Z,8.23
2019-05-07T13:55:53.549Z,10.30
2019-05-07T13:58:32.940Z,6.53
2019-05-07T14:01:09.074Z,5.05
2019-05-07T14:03:39.894Z,7.12
2019-05-07T14:06:12.622Z,6.03
2019-05-07T14:08:43.496Z,4.80
2019-05-07T14:11:13.939Z,6.80
2019-05-07T14:13:44.225Z,5.35
2019-05-07T14:16:14.385Z,5.85
2019-05-07T14:18:44.495Z,5.83
2019-05-07T14:21:14.771Z,6.15
2019-05-07T14:23:45.196Z,5.80
2019-05-07T14:26:15.406Z,6.50
2019-05-07T14:28:45.651Z,5.72
2019-05-07T14:31:15.737Z,6.87
2019-05-07T14:33:47.535Z,5.87
2019-05-07T14:36:22.446Z,6.62
2019-05-07T14:38:54.092Z,6.28
2019-05-07T14:41:25.656Z,7.62
2019-05-07T14:43:58.841Z,9.45
2019-05-07T14:46:44.589Z,6.37
2019-05-07T14:49:02.996Z,7.55
2019-05-07T14:51:33.234Z,7.35
2019-05-07T14:54:04.995Z,6.90
2019-05-07T14:56:39.177Z,7.72
2019-05-07T14:59:12.800Z,8.90
2019-05-07T15:04:13.106Z,7.60
2019-05-07T15:06:46.613Z,8.10
2019-05-07T15:09:16.101Z,8.05
2019-05-07T15:11:46.295Z,5.28
2019-05-07T15:14:16.720Z,8.85
2019-05-07T15:16:47.900Z,6.60
2019-05-07T15:19:18.514Z,7.17
2019-05-07T15:21:54.858Z,7.20
2019-05-07T15:24:25.081Z,6.95
2019-05-07T15:26:56.690Z,7.90
2019-05-07T15:29:28.362Z,7.75
2019-05-07T15:32:04.651Z,8.15
2019-05-07T15:34:34.777Z,7.80
2019-05-07T15:37:06.737Z,6.37
2019-05-07T15:39:39.342Z,10.75
2019-05-07T15:42:09.539Z,8.58
2019-05-07T15:44:39.757Z,6.70
2019-05-07T15:47:11.744Z,6.12
2019-05-07T15:49:42.850Z,10.95
2019-05-07T15:52:18.109Z,8.85
2019-05-07T15:54:49.390Z,8.15
2019-05-07T15:57:27.195Z,7.30
2019-05-07T16:00:04.965Z,6.72
2019-05-07T16:02:45.207Z,13.70
2019-05-07T16:05:15.969Z,8.90
2019-05-07T16:07:47.513Z,8.10
2019-05-07T16:10:19.106Z,8.33
2019-05-07T16:12:53.510Z,8.68
2019-05-07T16:15:25.258Z,7.30
2019-05-07T16:20:35.602Z,7.03
2019-05-07T16:23:14.847Z,9.03
2019-05-07T16:25:48.636Z,9.58
2019-05-07T16:28:27.236Z,11.63
2019-05-07T16:31:02.432Z,6.35
2019-05-07T16:33:34.780Z,7.75
2019-05-07T16:36:03.916Z,7.25
2019-05-07T16:38:37.272Z,8.08
2019-05-07T16:44:05.872Z,10.78
2019-05-07T16:46:37.562Z,8.25
2019-05-07T16:49:26.901Z,9.98
2019-05-07T16:54:59.178Z,10.03
2019-05-07T16:57:47.674Z,14.07
2019-05-07T17:00:24.402Z,8.60
2019-05-07T17:03:03.871Z,8.13
2019-05-07T17:05:34.484Z,7.78
2019-05-07T17:08:06.329Z,8.45
2019-05-07T17:10:39.408Z,8.05
2019-05-07T17:13:10.019Z,8.85
2019-05-07T17:20:58.965Z,11.22
2019-05-07T17:23:43.298Z,8.95
2019-05-07T17:26:07.221Z,9.83
2019-05-07T17:28:53.758Z,12.75
2019-05-07T17:31:23.887Z,11.50
2019-05-07T17:33:54.016Z,11.53
2019-05-07T17:36:25.048Z,10.48
2019-05-07T17:39:02.681Z,10.28
2019-05-07T17:41:35.221Z,9.28
2019-05-07T17:44:05.558Z,10.23
2019-05-07T17:46:37.241Z,12.18
2019-05-07T17:49:16.883Z,8.50
2019-05-07T17:51:47.070Z,7.80
2019-05-07T17:54:17.237Z,10.20
2019-05-07T17:56:47.424Z,11.53
2019-05-07T17:59:17.485Z,10.05
2019-05-07T18:01:50.210Z,8.70
2019-05-07T18:06:52.238Z,8.10
2019-05-07T18:09:22.678Z,11.35
2019-05-07T18:11:53.000Z,10.32
2019-05-07T18:14:24.319Z,10.70
2019-05-07T18:16:59.488Z,13.22
2019-05-07T18:19:32.973Z,9.83
2019-05-07T18:22:03.474Z,10.85
2019-05-07T18:24:34.055Z,38.65
2019-05-07T18:27:06.207Z,12.65
2019-05-07T18:29:36.348Z,12.70
2019-05-07T18:32:07.805Z,8.40
2019-05-07T18:34:58.623Z,10.40
2019-05-07T18:37:28.826Z,8.03
2019-05-07T18:39:58.906Z,8.38
2019-05-07T18:42:29.542Z,9.53
2019-05-07T18:45:02.124Z,9.98
2019-05-07T18:47:40.279Z,9.20
2019-05-07T18:50:33.622Z,10.43
2019-05-07T18:53:22.714Z,10.53
2019-05-07T18:55:56.182Z,11.00
2019-05-07T18:58:28.056Z,10.55
2019-05-07T19:00:59.824Z,9.43
2019-05-07T19:03:42.025Z,8.60
2019-05-07T19:06:15.254Z,9.15
2019-05-07T19:08:52.650Z,8.10
2019-05-07T19:11:24.290Z,9.90
2019-05-07T19:13:56.119Z,25.62
2019-05-07T19:16:26.117Z,23.42
2019-05-07T19:18:56.275Z,10.58
2019-05-07T19:22:04.209Z,9.40
2019-05-07T19:24:44.278Z,12.05
2019-05-07T19:30:44.410Z,11.53
2019-05-07T19:33:14.661Z,14.68
2019-05-07T19:35:46.422Z,10.55
2019-05-07T19:38:21.902Z,10.53
2019-05-07T19:40:56.288Z,11.03
2019-05-07T19:43:28.219Z,8.08
2019-05-07T19:46:00.049Z,10.93
2019-05-07T19:48:32.140Z,12.78
2019-05-07T19:51:03.160Z,9.43
2019-05-07T19:53:33.552Z,8.88
2019-05-07T19:56:05.293Z,6.92
2019-05-07T19:58:35.582Z,7.30
2019-05-07T20:01:07.661Z,8.98
2019-05-07T20:03:38.783Z,9.90
2019-05-07T20:06:12.670Z,7.17
2019-05-07T20:08:44.532Z,9.35
2019-05-07T20:11:25.670Z,5.67
2019-05-07T20:13:55.841Z,9.38
2019-05-07T20:16:28.970Z,8.90
2019-05-07T20:19:03.187Z,7.85
2019-05-07T20:21:33.382Z,6.37
2019-05-07T20:24:03.702Z,4.78
2019-05-07T20:26:33.903Z,46.45
2019-05-07T20:29:06.142Z,61.88
2019-05-07T20:31:37.374Z,58.55
2019-05-07T20:34:09.001Z,9.13
2019-05-07T20:36:39.259Z,7.72
2019-05-07T20:39:12.783Z,5.87
2019-05-07T20:41:44.383Z,5.10
2019-05-07T20:44:14.749Z,5.28
2019-05-07T20:46:44.906Z,5.85
2019-05-07T20:49:15.163Z,7.53
2019-05-07T20:51:45.296Z,6.78
2019-05-07T20:54:17.120Z,6.33
2019-05-07T20:56:48.960Z,5.87
2019-05-07T20:59:19.013Z,8.05
2019-05-07T21:01:52.623Z,6.30
2019-05-07T21:06:52.846Z,5.70
2019-05-07T21:09:23.008Z,6.78
2019-05-07T21:11:53.681Z,9.18
2019-05-07T21:14:23.748Z,6.80
2019-05-07T21:16:53.870Z,7.05
2019-05-07T21:19:23.931Z,5.78
2019-05-07T21:21:54.055Z,8.15
2019-05-07T21:24:24.221Z,6.33
2019-05-07T21:26:54.755Z,6.28
2019-05-07T21:29:24.839Z,8.50
2019-05-07T21:31:56.246Z,6.42
2019-05-07T21:34:26.381Z,7.70
2019-05-07T21:36:56.502Z,7.72
2019-05-07T21:39:27.070Z,11.22
2019-05-07T21:41:57.158Z,9.43
2019-05-07T21:44:28.823Z,8.20
2019-05-07T21:46:58.815Z,9.70
2019-05-07T21:49:28.990Z,8.23
2019-05-07T21:51:59.122Z,7.70
2019-05-07T21:54:43.645Z,6.00
2019-05-07T21:57:15.534Z,8.55
2019-05-07T21:59:46.068Z,7.65
2019-05-07T22:02:19.196Z,7.85
2019-05-07T22:04:49.790Z,7.62
2019-05-07T22:07:20.050Z,7.12
2019-05-07T22:09:52.363Z,9.05
2019-05-07T22:12:22.596Z,8.05
2019-05-07T22:14:54.275Z,9.53
2019-05-07T22:17:27.063Z,6.50
2019-05-07T22:20:02.861Z,7.42
2019-05-07T22:22:34.677Z,7.78
2019-05-07T22:25:07.250Z,6.97
2019-05-07T22:27:38.958Z,7.92
2019-05-07T22:30:12.540Z,8.33
2019-05-07T22:32:47.412Z,8.03
2019-05-07T22:35:19.606Z,9.28
2019-05-07T22:38:08.149Z,8.43
2019-05-07T22:40:39.776Z,8.85
2019-05-07T22:43:12.960Z,6.55
2019-05-07T22:45:43.214Z,8.23
2019-05-07T22:48:16.478Z,8.55
2019-05-07T22:50:46.525Z,8.38
2019-05-07T22:53:17.956Z,7.28
2019-05-07T22:55:49.660Z,6.87
2019-05-07T22:58:26.317Z,7.33
2019-05-07T23:00:58.063Z,7.10
2019-05-07T23:03:28.183Z,9.45
2019-05-07T23:05:59.890Z,7.92
2019-05-07T23:08:30.010Z,9.28
2019-05-07T23:11:00.079Z,10.55
2019-05-07T23:13:31.878Z,9.18
2019-05-07T23:16:02.682Z,7.87
2019-05-07T23:18:33.762Z,8.53
2019-05-07T23:21:03.988Z,8.70
2019-05-07T23:23:35.857Z,8.33
2019-05-07T23:26:06.079Z,13.50
2019-05-07T23:28:36.200Z,9.75
2019-05-07T23:31:06.429Z,8.43
2019-05-07T23:33:36.518Z,9.08
2019-05-07T23:36:06.581Z,8.85
2019-05-07T23:38:36.692Z,10.63
2019-05-07T23:41:25.637Z,7.30
2019-05-07T23:44:14.873Z,11.63
2019-05-07T23:46:45.217Z,10.08
2019-05-07T23:49:15.559Z,10.60
2019-05-07T23:51:45.714Z,8.33
2019-05-07T23:54:15.838Z,12.58
2019-05-07T23:57:01.813Z,9.70
2019-05-07T23:59:21.997Z,11.65
